sensor_id;sensor_type;location;lat;lon;timestamp;pressure;altitude;pressure_sealevel;temperature;humidity
11987;BME280;6053;51.382;6.768;2023-07-09T00:02:20;101376.91;;;27.55;53.96
11987;BME280;6053;51.382;6.768;2023-07-09T00:04:48;101366.72;;;27.62;53.28
11987;BME280;6053;51.382;6.768;2023-07-09T00:07:22;101369.56;;;27.54;54.42
11987;BME280;6053;51.382;6.768;2023-07-09T00:09:53;101368.56;;;27.41;54.97
11987;BME280;6053;51.382;6.768;2023-07-09T00:12:23;101366.19;;;27.43;54.90
11987;BME280;6053;51.382;6.768;2023-07-09T00:14:51;101374.03;;;27.46;54.87
11987;BME280;6053;51.382;6.768;2023-07-09T00:17:29;101364.88;;;27.40;54.59
11987;BME280;6053;51.382;6.768;2023-07-09T00:20:00;101369.22;;;27.38;54.84
11987;BME280;6053;51.382;6.768;2023-07-09T00:22:28;101368.38;;;27.37;54.99
11987;BME280;6053;51.382;6.768;2023-07-09T00:24:57;101357.50;;;27.22;55.64
11987;BME280;6053;51.382;6.768;2023-07-09T00:27:29;101356.16;;;27.19;55.81
11987;BME280;6053;51.382;6.768;2023-07-09T00:29:58;101354.19;;;27.20;55.66
11987;BME280;6053;51.382;6.768;2023-07-09T00:32:26;101358.78;;;27.07;55.83
11987;BME280;6053;51.382;6.768;2023-07-09T00:34:55;101360.78;;;27.07;55.97
11987;BME280;6053;51.382;6.768;2023-07-09T00:37:24;101359.28;;;27.09;56.16
11987;BME280;6053;51.382;6.768;2023-07-09T00:39:53;101353.94;;;26.99;56.49
11987;BME280;6053;51.382;6.768;2023-07-09T00:42:22;101354.41;;;26.92;56.85
11987;BME280;6053;51.382;6.768;2023-07-09T00:44:54;101348.44;;;26.94;56.64
11987;BME280;6053;51.382;6.768;2023-07-09T00:47:26;101345.44;;;26.90;57.16
11987;BME280;6053;51.382;6.768;2023-07-09T00:50:08;101357.06;;;26.80;57.25
11987;BME280;6053;51.382;6.768;2023-07-09T00:52:44;101351.88;;;26.82;56.87
11987;BME280;6053;51.382;6.768;2023-07-09T00:55:22;101352.34;;;26.75;57.47
11987;BME280;6053;51.382;6.768;2023-07-09T00:57:58;101352.19;;;26.72;57.41
11987;BME280;6053;51.382;6.768;2023-07-09T01:00:33;101357.66;;;26.68;58.25
11987;BME280;6053;51.382;6.768;2023-07-09T01:03:11;101355.81;;;26.64;58.71
11987;BME280;6053;51.382;6.768;2023-07-09T01:05:39;101355.94;;;26.59;59.04
11987;BME280;6053;51.382;6.768;2023-07-09T01:08:08;101350.44;;;26.53;59.29
11987;BME280;6053;51.382;6.768;2023-07-09T01:10:39;101358.59;;;26.55;59.06
11987;BME280;6053;51.382;6.768;2023-07-09T01:13:08;101357.41;;;26.47;59.70
11987;BME280;6053;51.382;6.768;2023-07-09T01:15:38;101360.84;;;26.44;59.71
11987;BME280;6053;51.382;6.768;2023-07-09T01:18:08;101366.97;;;26.38;60.75
11987;BME280;6053;51.382;6.768;2023-07-09T01:20:39;101363.13;;;26.33;60.69
11987;BME280;6053;51.382;6.768;2023-07-09T01:23:09;101365.78;;;26.30;60.94
11987;BME280;6053;51.382;6.768;2023-07-09T01:25:44;101368.72;;;26.25;61.28
11987;BME280;6053;51.382;6.768;2023-07-09T01:28:13;101361.22;;;26.20;61.35
11987;BME280;6053;51.382;6.768;2023-07-09T01:30:45;101370.00;;;26.19;61.57
11987;BME280;6053;51.382;6.768;2023-07-09T01:33:13;101370.69;;;26.16;61.50
11987;BME280;6053;51.382;6.768;2023-07-09T01:35:41;101365.66;;;26.13;61.51
11987;BME280;6053;51.382;6.768;2023-07-09T01:38:11;101364.63;;;26.08;61.88
11987;BME280;6053;51.382;6.768;2023-07-09T01:40:39;101359.22;;;25.98;62.84
11987;BME280;6053;51.382;6.768;2023-07-09T01:43:08;101363.75;;;25.99;62.29
11987;BME280;6053;51.382;6.768;2023-07-09T01:45:37;101359.88;;;25.95;62.87
11987;BME280;6053;51.382;6.768;2023-07-09T01:48:06;101365.03;;;25.93;63.14
11987;BME280;6053;51.382;6.768;2023-07-09T01:50:43;101360.31;;;25.89;63.50
11987;BME280;6053;51.382;6.768;2023-07-09T01:53:13;101361.28;;;25.84;63.98
11987;BME280;6053;51.382;6.768;2023-07-09T01:55:44;101365.59;;;25.81;63.90
11987;BME280;6053;51.382;6.768;2023-07-09T01:58:15;101369.56;;;25.80;64.15
11987;BME280;6053;51.382;6.768;2023-07-09T02:00:43;101368.19;;;25.78;64.43
11987;BME280;6053;51.382;6.768;2023-07-09T02:03:12;101365.16;;;25.74;64.08
11987;BME280;6053;51.382;6.768;2023-07-09T02:05:41;101364.22;;;25.79;63.88
11987;BME280;6053;51.382;6.768;2023-07-09T02:08:09;101363.97;;;25.67;63.72
11987;BME280;6053;51.382;6.768;2023-07-09T02:10:39;101357.91;;;25.59;63.89
11987;BME280;6053;51.382;6.768;2023-07-09T02:14:02;101369.53;;;25.58;64.71
11987;BME280;6053;51.382;6.768;2023-07-09T02:16:31;101354.88;;;25.56;64.64
11987;BME280;6053;51.382;6.768;2023-07-09T02:18:59;101359.72;;;25.55;65.19
11987;BME280;6053;51.382;6.768;2023-07-09T02:21:27;101362.31;;;25.52;65.60
11987;BME280;6053;51.382;6.768;2023-07-09T02:23:56;101360.44;;;25.47;65.78
11987;BME280;6053;51.382;6.768;2023-07-09T02:26:26;101357.22;;;25.40;66.15
11987;BME280;6053;51.382;6.768;2023-07-09T02:28:54;101358.06;;;25.40;66.90
11987;BME280;6053;51.382;6.768;2023-07-09T02:31:23;101361.66;;;25.32;67.36
11987;BME280;6053;51.382;6.768;2023-07-09T02:33:51;101361.13;;;25.30;67.63
11987;BME280;6053;51.382;6.768;2023-07-09T02:36:19;101368.22;;;25.28;68.20
11987;BME280;6053;51.382;6.768;2023-07-09T02:38:48;101371.19;;;25.23;68.69
11987;BME280;6053;51.382;6.768;2023-07-09T02:41:16;101380.78;;;25.22;68.47
11987;BME280;6053;51.382;6.768;2023-07-09T02:43:46;101374.31;;;25.21;68.82
11987;BME280;6053;51.382;6.768;2023-07-09T02:46:14;101372.44;;;25.16;68.78
11987;BME280;6053;51.382;6.768;2023-07-09T02:48:43;101380.91;;;25.16;68.51
11987;BME280;6053;51.382;6.768;2023-07-09T02:51:11;101377.06;;;25.12;68.73
11987;BME280;6053;51.382;6.768;2023-07-09T02:53:39;101373.16;;;25.08;69.20
11987;BME280;6053;51.382;6.768;2023-07-09T02:56:07;101374.00;;;25.09;69.45
11987;BME280;6053;51.382;6.768;2023-07-09T02:58:36;101380.56;;;25.04;70.31
11987;BME280;6053;51.382;6.768;2023-07-09T03:01:05;101381.53;;;25.00;70.34
11987;BME280;6053;51.382;6.768;2023-07-09T03:03:34;101377.88;;;24.99;70.09
11987;BME280;6053;51.382;6.768;2023-07-09T03:06:02;101378.81;;;24.94;70.97
11987;BME280;6053;51.382;6.768;2023-07-09T03:08:31;101383.09;;;24.92;70.80
11987;BME280;6053;51.382;6.768;2023-07-09T03:11:00;101385.72;;;24.88;70.73
11987;BME280;6053;51.382;6.768;2023-07-09T03:13:28;101390.63;;;24.83;70.96
11987;BME280;6053;51.382;6.768;2023-07-09T03:15:57;101384.78;;;24.79;71.52
11987;BME280;6053;51.382;6.768;2023-07-09T03:18:27;101388.50;;;24.75;71.23
11987;BME280;6053;51.382;6.768;2023-07-09T03:20:55;101386.09;;;24.68;72.26
11987;BME280;6053;51.382;6.768;2023-07-09T03:23:24;101389.47;;;24.70;72.27
11987;BME280;6053;51.382;6.768;2023-07-09T03:25:52;101392.28;;;24.70;72.08
11987;BME280;6053;51.382;6.768;2023-07-09T03:28:21;101395.44;;;24.68;72.42
11987;BME280;6053;51.382;6.768;2023-07-09T03:30:54;101400.00;;;24.64;73.30
11987;BME280;6053;51.382;6.768;2023-07-09T03:33:23;101403.97;;;24.63;73.30
11987;BME280;6053;51.382;6.768;2023-07-09T03:35:54;101405.44;;;24.61;73.56
11987;BME280;6053;51.382;6.768;2023-07-09T03:38:22;101409.94;;;24.62;74.23
11987;BME280;6053;51.382;6.768;2023-07-09T03:40:51;101409.41;;;24.60;74.75
11987;BME280;6053;51.382;6.768;2023-07-09T03:43:20;101404.38;;;24.57;74.84
11987;BME280;6053;51.382;6.768;2023-07-09T03:45:49;101404.09;;;24.58;74.76
11987;BME280;6053;51.382;6.768;2023-07-09T03:48:18;101407.00;;;24.53;74.83
11987;BME280;6053;51.382;6.768;2023-07-09T03:50:48;101407.31;;;24.52;75.06
11987;BME280;6053;51.382;6.768;2023-07-09T03:53:18;101416.81;;;24.56;74.77
11987;BME280;6053;51.382;6.768;2023-07-09T03:55:54;101410.56;;;24.59;74.08
11987;BME280;6053;51.382;6.768;2023-07-09T03:58:24;101406.69;;;24.55;74.85
11987;BME280;6053;51.382;6.768;2023-07-09T04:00:53;101407.94;;;24.49;75.53
11987;BME280;6053;51.382;6.768;2023-07-09T04:03:22;101407.41;;;24.46;75.40
11987;BME280;6053;51.382;6.768;2023-07-09T04:05:50;101404.78;;;24.50;75.31
11987;BME280;6053;51.382;6.768;2023-07-09T04:08:20;101404.78;;;24.50;75.62
11987;BME280;6053;51.382;6.768;2023-07-09T04:10:48;101407.72;;;24.45;75.83
11987;BME280;6053;51.382;6.768;2023-07-09T04:13:17;101412.75;;;24.48;76.50
11987;BME280;6053;51.382;6.768;2023-07-09T04:15:45;101410.44;;;24.50;76.74
11987;BME280;6053;51.382;6.768;2023-07-09T04:18:13;101418.91;;;24.50;77.67
11987;BME280;6053;51.382;6.768;2023-07-09T04:20:42;101418.28;;;24.53;77.86
11987;BME280;6053;51.382;6.768;2023-07-09T04:23:11;101413.19;;;24.55;77.79
11987;BME280;6053;51.382;6.768;2023-07-09T04:25:40;101417.13;;;24.54;78.04
11987;BME280;6053;51.382;6.768;2023-07-09T04:28:09;101411.69;;;24.58;78.24
11987;BME280;6053;51.382;6.768;2023-07-09T04:30:37;101422.16;;;24.57;78.34
11987;BME280;6053;51.382;6.768;2023-07-09T04:33:06;101415.59;;;24.62;77.92
11987;BME280;6053;51.382;6.768;2023-07-09T04:35:36;101414.44;;;24.63;78.23
11987;BME280;6053;51.382;6.768;2023-07-09T04:38:04;101405.44;;;24.61;78.77
11987;BME280;6053;51.382;6.768;2023-07-09T04:40:33;101405.84;;;24.68;77.31
11987;BME280;6053;51.382;6.768;2023-07-09T04:43:02;101412.38;;;24.82;76.31
11987;BME280;6053;51.382;6.768;2023-07-09T04:45:31;101405.97;;;25.04;74.47
11987;BME280;6053;51.382;6.768;2023-07-09T04:47:59;101408.91;;;25.40;73.30
11987;BME280;6053;51.382;6.768;2023-07-09T04:50:27;101401.59;;;25.76;71.77
11987;BME280;6053;51.382;6.768;2023-07-09T04:52:55;101412.75;;;25.95;70.76
11987;BME280;6053;51.382;6.768;2023-07-09T04:55:24;101424.72;;;26.14;68.33
11987;BME280;6053;51.382;6.768;2023-07-09T04:57:53;101416.56;;;25.76;69.19
11987;BME280;6053;51.382;6.768;2023-07-09T05:00:23;101411.84;;;25.72;69.00
11987;BME280;6053;51.382;6.768;2023-07-09T05:02:52;101421.88;;;25.55;67.63
11987;BME280;6053;51.382;6.768;2023-07-09T05:05:20;101416.41;;;25.45;67.66
11987;BME280;6053;51.382;6.768;2023-07-09T05:07:49;101411.34;;;25.70;68.97
11987;BME280;6053;51.382;6.768;2023-07-09T05:10:18;101414.69;;;26.08;68.14
11987;BME280;6053;51.382;6.768;2023-07-09T05:12:50;101417.63;;;26.79;65.53
11987;BME280;6053;51.382;6.768;2023-07-09T05:15:19;101423.41;;;27.05;64.94
11987;BME280;6053;51.382;6.768;2023-07-09T05:17:49;101416.91;;;26.65;64.40
11987;BME280;6053;51.382;6.768;2023-07-09T05:20:18;101415.31;;;26.81;64.85
11987;BME280;6053;51.382;6.768;2023-07-09T05:22:48;101415.50;;;26.31;66.37
11987;BME280;6053;51.382;6.768;2023-07-09T05:25:17;101424.00;;;26.08;65.24
11987;BME280;6053;51.382;6.768;2023-07-09T05:27:45;101429.16;;;26.06;63.23
11987;BME280;6053;51.382;6.768;2023-07-09T05:30:14;101425.91;;;26.67;61.54
11987;BME280;6053;51.382;6.768;2023-07-09T05:32:42;101420.66;;;25.84;64.83
11987;BME280;6053;51.382;6.768;2023-07-09T05:35:12;101418.69;;;26.07;66.64
11987;BME280;6053;51.382;6.768;2023-07-09T05:37:41;101421.16;;;26.31;65.92
11987;BME280;6053;51.382;6.768;2023-07-09T05:40:09;101418.16;;;26.81;62.08
11987;BME280;6053;51.382;6.768;2023-07-09T05:42:38;101423.84;;;26.50;61.71
11987;BME280;6053;51.382;6.768;2023-07-09T05:45:07;101428.31;;;25.70;65.68
11987;BME280;6053;51.382;6.768;2023-07-09T05:47:36;101421.88;;;26.37;63.41
11987;BME280;6053;51.382;6.768;2023-07-09T05:50:05;101418.78;;;26.47;64.62
11987;BME280;6053;51.382;6.768;2023-07-09T05:52:35;101416.84;;;26.87;61.25
11987;BME280;6053;51.382;6.768;2023-07-09T05:55:05;101419.16;;;26.76;63.56
11987;BME280;6053;51.382;6.768;2023-07-09T05:57:34;101426.66;;;26.50;62.20
11987;BME280;6053;51.382;6.768;2023-07-09T06:00:03;101426.84;;;26.31;62.81
11987;BME280;6053;51.382;6.768;2023-07-09T06:02:31;101425.22;;;27.01;62.43
11987;BME280;6053;51.382;6.768;2023-07-09T06:04:59;101434.09;;;27.08;63.05
11987;BME280;6053;51.382;6.768;2023-07-09T06:07:28;101429.75;;;26.71;62.26
11987;BME280;6053;51.382;6.768;2023-07-09T06:09:58;101432.16;;;27.26;60.45
11987;BME280;6053;51.382;6.768;2023-07-09T06:12:26;101432.22;;;27.43;60.31
11987;BME280;6053;51.382;6.768;2023-07-09T06:14:55;101425.94;;;27.07;60.81
11987;BME280;6053;51.382;6.768;2023-07-09T06:17:23;101425.69;;;27.34;58.71
11987;BME280;6053;51.382;6.768;2023-07-09T06:19:51;101430.78;;;28.07;56.79
11987;BME280;6053;51.382;6.768;2023-07-09T06:22:20;101426.44;;;28.44;59.34
11987;BME280;6053;51.382;6.768;2023-07-09T06:24:48;101431.97;;;28.40;55.27
11987;BME280;6053;51.382;6.768;2023-07-09T06:27:18;101426.94;;;28.20;57.86
11987;BME280;6053;51.382;6.768;2023-07-09T06:29:46;101425.88;;;28.68;56.44
11987;BME280;6053;51.382;6.768;2023-07-09T06:32:14;101433.56;;;28.67;53.64
11987;BME280;6053;51.382;6.768;2023-07-09T06:34:43;101423.97;;;28.08;57.27
11987;BME280;6053;51.382;6.768;2023-07-09T06:37:11;101438.00;;;28.86;55.57
11987;BME280;6053;51.382;6.768;2023-07-09T06:39:39;101423.16;;;29.48;53.31
11987;BME280;6053;51.382;6.768;2023-07-09T06:42:08;101426.94;;;30.24;54.26
11987;BME280;6053;51.382;6.768;2023-07-09T06:44:38;101438.72;;;30.35;52.57
11987;BME280;6053;51.382;6.768;2023-07-09T06:47:07;101437.00;;;31.00;51.72
11987;BME280;6053;51.382;6.768;2023-07-09T06:49:35;101437.47;;;29.31;51.63
11987;BME280;6053;51.382;6.768;2023-07-09T06:52:05;101432.09;;;29.38;52.78
11987;BME280;6053;51.382;6.768;2023-07-09T06:54:33;101436.72;;;29.93;52.36
11987;BME280;6053;51.382;6.768;2023-07-09T06:57:02;101437.97;;;29.33;52.21
11987;BME280;6053;51.382;6.768;2023-07-09T06:59:30;101447.44;;;30.84;51.86
11987;BME280;6053;51.382;6.768;2023-07-09T07:02:00;101435.44;;;30.45;49.56
11987;BME280;6053;51.382;6.768;2023-07-09T07:04:28;101437.94;;;30.92;51.12
11987;BME280;6053;51.382;6.768;2023-07-09T07:06:56;101439.50;;;30.89;50.41
11987;BME280;6053;51.382;6.768;2023-07-09T07:09:25;101437.59;;;31.55;47.71
11987;BME280;6053;51.382;6.768;2023-07-09T07:11:53;101439.13;;;30.91;48.18
11987;BME280;6053;51.382;6.768;2023-07-09T07:14:21;101439.84;;;31.00;49.89
11987;BME280;6053;51.382;6.768;2023-07-09T07:16:50;101438.09;;;31.20;50.27
11987;BME280;6053;51.382;6.768;2023-07-09T07:19:20;101436.28;;;31.52;47.96
11987;BME280;6053;51.382;6.768;2023-07-09T07:21:48;101438.94;;;31.33;49.84
11987;BME280;6053;51.382;6.768;2023-07-09T07:24:17;101433.03;;;32.19;45.43
11987;BME280;6053;51.382;6.768;2023-07-09T07:26:45;101426.16;;;31.79;46.65
11987;BME280;6053;51.382;6.768;2023-07-09T07:29:13;101427.38;;;30.92;47.47
11987;BME280;6053;51.382;6.768;2023-07-09T07:31:41;101420.88;;;31.53;47.60
11987;BME280;6053;51.382;6.768;2023-07-09T07:34:11;101428.22;;;31.66;45.89
11987;BME280;6053;51.382;6.768;2023-07-09T07:36:40;101430.34;;;31.69;47.13
11987;BME280;6053;51.382;6.768;2023-07-09T07:39:10;101414.88;;;31.70;49.32
11987;BME280;6053;51.382;6.768;2023-07-09T07:41:38;101426.16;;;32.20;47.86
11987;BME280;6053;51.382;6.768;2023-07-09T07:44:06;101418.09;;;32.37;46.48
11987;BME280;6053;51.382;6.768;2023-07-09T07:46:35;101416.78;;;32.35;45.75
11987;BME280;6053;51.382;6.768;2023-07-09T07:49:03;101420.22;;;32.84;45.64
11987;BME280;6053;51.382;6.768;2023-07-09T07:51:32;101419.81;;;32.86;45.99
11987;BME280;6053;51.382;6.768;2023-07-09T07:54:02;101418.88;;;31.82;45.57
11987;BME280;6053;51.382;6.768;2023-07-09T07:56:31;101413.19;;;32.50;47.29
11987;BME280;6053;51.382;6.768;2023-07-09T07:58:59;101416.81;;;33.11;44.71
11987;BME280;6053;51.382;6.768;2023-07-09T08:01:27;101416.44;;;32.36;45.52
11987;BME280;6053;51.382;6.768;2023-07-09T08:03:56;101419.34;;;32.52;49.22
11987;BME280;6053;51.382;6.768;2023-07-09T08:06:24;101410.88;;;32.72;48.62
11987;BME280;6053;51.382;6.768;2023-07-09T08:08:53;101410.63;;;32.77;44.67
11987;BME280;6053;51.382;6.768;2023-07-09T08:11:23;101414.19;;;32.90;47.00
11987;BME280;6053;51.382;6.768;2023-07-09T08:13:51;101414.41;;;32.81;44.51
11987;BME280;6053;51.382;6.768;2023-07-09T08:16:20;101412.63;;;32.92;46.71
11987;BME280;6053;51.382;6.768;2023-07-09T08:18:48;101415.94;;;33.42;47.26
11987;BME280;6053;51.382;6.768;2023-07-09T08:21:18;101411.72;;;32.88;44.65
11987;BME280;6053;51.382;6.768;2023-07-09T08:23:47;101408.66;;;33.44;44.19
11987;BME280;6053;51.382;6.768;2023-07-09T08:26:15;101402.88;;;32.77;42.38
11987;BME280;6053;51.382;6.768;2023-07-09T08:28:45;101403.97;;;32.89;42.75
11987;BME280;6053;51.382;6.768;2023-07-09T08:31:13;101396.06;;;33.65;41.93
11987;BME280;6053;51.382;6.768;2023-07-09T08:33:41;101391.81;;;32.92;41.99
11987;BME280;6053;51.382;6.768;2023-07-09T08:36:10;101396.63;;;34.71;41.99
11987;BME280;6053;51.382;6.768;2023-07-09T08:38:38;101390.59;;;34.57;43.80
11987;BME280;6053;51.382;6.768;2023-07-09T08:41:16;101390.84;;;34.48;41.09
11987;BME280;6053;51.382;6.768;2023-07-09T08:44:00;101392.38;;;33.84;40.36
11987;BME280;6053;51.382;6.768;2023-07-09T08:46:40;101389.69;;;34.10;42.89
11987;BME280;6053;51.382;6.768;2023-07-09T08:49:20;101389.31;;;34.12;40.06
11987;BME280;6053;51.382;6.768;2023-07-09T08:51:49;101385.09;;;34.25;39.65
11987;BME280;6053;51.382;6.768;2023-07-09T08:54:26;101390.03;;;34.70;41.00
11987;BME280;6053;51.382;6.768;2023-07-09T08:56:59;101380.84;;;33.99;39.55
11987;BME280;6053;51.382;6.768;2023-07-09T08:59:29;101387.38;;;34.58;41.92
11987;BME280;6053;51.382;6.768;2023-07-09T09:01:59;101391.47;;;34.38;39.26
11987;BME280;6053;51.382;6.768;2023-07-09T09:04:35;101386.81;;;34.10;39.18
11987;BME280;6053;51.382;6.768;2023-07-09T09:07:26;101385.31;;;33.77;42.88
11987;BME280;6053;51.382;6.768;2023-07-09T09:09:58;101395.84;;;34.32;40.71
11987;BME280;6053;51.382;6.768;2023-07-09T09:12:35;101393.47;;;34.37;39.39
11987;BME280;6053;51.382;6.768;2023-07-09T09:15:15;101380.31;;;34.52;38.35
11987;BME280;6053;51.382;6.768;2023-07-09T09:17:44;101382.47;;;35.31;40.22
11987;BME280;6053;51.382;6.768;2023-07-09T09:20:19;101381.69;;;35.61;37.18
11987;BME280;6053;51.382;6.768;2023-07-09T09:22:54;101382.78;;;35.26;40.18
11987;BME280;6053;51.382;6.768;2023-07-09T09:25:28;101373.19;;;35.41;38.24
11987;BME280;6053;51.382;6.768;2023-07-09T09:27:59;101371.59;;;34.48;39.30
11987;BME280;6053;51.382;6.768;2023-07-09T09:30:30;101374.25;;;35.30;35.58
11987;BME280;6053;51.382;6.768;2023-07-09T09:33:00;101372.16;;;35.27;38.04
11987;BME280;6053;51.382;6.768;2023-07-09T09:35:32;101367.03;;;34.90;36.33
11987;BME280;6053;51.382;6.768;2023-07-09T09:38:08;101365.44;;;35.15;35.29
11987;BME280;6053;51.382;6.768;2023-07-09T09:40:37;101362.66;;;35.23;37.47
11987;BME280;6053;51.382;6.768;2023-07-09T09:43:13;101362.41;;;35.31;37.04
11987;BME280;6053;51.382;6.768;2023-07-09T09:45:45;101362.81;;;35.07;37.13
11987;BME280;6053;51.382;6.768;2023-07-09T09:48:18;101362.56;;;34.92;34.85
11987;BME280;6053;51.382;6.768;2023-07-09T09:50:48;101360.06;;;35.14;35.26
11987;BME280;6053;51.382;6.768;2023-07-09T09:53:21;101365.28;;;35.05;39.07
11987;BME280;6053;51.382;6.768;2023-07-09T09:55:52;101360.34;;;34.82;35.77
11987;BME280;6053;51.382;6.768;2023-07-09T09:58:26;101374.00;;;34.23;35.02
11987;BME280;6053;51.382;6.768;2023-07-09T10:00:58;101369.81;;;34.40;36.02
11987;BME280;6053;51.382;6.768;2023-07-09T10:03:34;101364.56;;;34.88;35.56
11987;BME280;6053;51.382;6.768;2023-07-09T10:06:06;101357.31;;;35.51;36.49
11987;BME280;6053;51.382;6.768;2023-07-09T10:08:46;101349.47;;;35.75;37.61
11987;BME280;6053;51.382;6.768;2023-07-09T10:11:24;101360.69;;;35.87;36.08
11987;BME280;6053;51.382;6.768;2023-07-09T10:14:00;101347.91;;;35.51;36.13
11987;BME280;6053;51.382;6.768;2023-07-09T10:16:38;101352.38;;;35.18;35.11
11987;BME280;6053;51.382;6.768;2023-07-09T10:19:18;101346.09;;;35.39;36.88
11987;BME280;6053;51.382;6.768;2023-07-09T10:21:57;101335.72;;;34.78;34.13
11987;BME280;6053;51.382;6.768;2023-07-09T10:24:41;101331.88;;;35.76;34.21
11987;BME280;6053;51.382;6.768;2023-07-09T10:27:16;101341.41;;;35.27;35.04
11987;BME280;6053;51.382;6.768;2023-07-09T10:30:08;101336.81;;;35.19;38.13
11987;BME280;6053;51.382;6.768;2023-07-09T10:33:02;101332.88;;;35.31;34.27
11987;BME280;6053;51.382;6.768;2023-07-09T10:35:38;101337.91;;;35.11;35.66
11987;BME280;6053;51.382;6.768;2023-07-09T10:38:26;101344.00;;;35.62;34.46
11987;BME280;6053;51.382;6.768;2023-07-09T10:41:02;101333.56;;;35.51;33.73
11987;BME280;6053;51.382;6.768;2023-07-09T10:43:57;101344.41;;;35.98;33.47
11987;BME280;6053;51.382;6.768;2023-07-09T10:46:32;101342.88;;;36.04;34.31
11987;BME280;6053;51.382;6.768;2023-07-09T10:49:04;101336.97;;;36.27;36.13
11987;BME280;6053;51.382;6.768;2023-07-09T10:51:39;101333.75;;;36.32;32.92
11987;BME280;6053;51.382;6.768;2023-07-09T10:54:18;101337.38;;;36.26;34.24
11987;BME280;6053;51.382;6.768;2023-07-09T10:56:56;101329.72;;;36.41;36.40
11987;BME280;6053;51.382;6.768;2023-07-09T10:59:31;101340.59;;;36.21;36.05
11987;BME280;6053;51.382;6.768;2023-07-09T11:02:14;101331.75;;;36.81;33.38
11987;BME280;6053;51.382;6.768;2023-07-09T11:04:51;101331.38;;;35.71;32.21
11987;BME280;6053;51.382;6.768;2023-07-09T11:07:26;101333.25;;;35.89;30.61
11987;BME280;6053;51.382;6.768;2023-07-09T11:09:58;101330.41;;;36.27;31.97
11987;BME280;6053;51.382;6.768;2023-07-09T11:12:33;101313.63;;;36.29;34.86
11987;BME280;6053;51.382;6.768;2023-07-09T11:15:09;101315.59;;;35.54;31.99
11987;BME280;6053;51.382;6.768;2023-07-09T11:17:42;101297.22;;;35.58;32.52
11987;BME280;6053;51.382;6.768;2023-07-09T11:20:21;101298.44;;;35.95;33.19
11987;BME280;6053;51.382;6.768;2023-07-09T11:22:54;101284.59;;;35.67;34.44
11987;BME280;6053;51.382;6.768;2023-07-09T11:25:31;101283.25;;;36.31;32.92
11987;BME280;6053;51.382;6.768;2023-07-09T11:28:08;101288.59;;;35.92;33.79
11987;BME280;6053;51.382;6.768;2023-07-09T11:30:48;101294.09;;;35.44;32.16
11987;BME280;6053;51.382;6.768;2023-07-09T11:33:20;101283.59;;;35.52;34.59
11987;BME280;6053;51.382;6.768;2023-07-09T11:36:05;101282.88;;;35.58;32.80
11987;BME280;6053;51.382;6.768;2023-07-09T11:38:41;101278.81;;;35.33;35.11
11987;BME280;6053;51.382;6.768;2023-07-09T11:41:29;101276.66;;;35.00;33.34
11987;BME280;6053;51.382;6.768;2023-07-09T11:44:14;101261.00;;;34.93;34.76
11987;BME280;6053;51.382;6.768;2023-07-09T11:46:59;101272.63;;;35.61;33.91
11987;BME280;6053;51.382;6.768;2023-07-09T11:49:38;101273.97;;;35.71;31.82
11987;BME280;6053;51.382;6.768;2023-07-09T11:52:10;101276.63;;;35.23;32.98
11987;BME280;6053;51.382;6.768;2023-07-09T11:54:38;101274.91;;;35.48;37.14
11987;BME280;6053;51.382;6.768;2023-07-09T11:57:12;101277.31;;;35.42;33.09
11987;BME280;6053;51.382;6.768;2023-07-09T11:59:41;101281.69;;;35.63;31.50
11987;BME280;6053;51.382;6.768;2023-07-09T12:02:17;101287.94;;;35.72;34.56
11987;BME280;6053;51.382;6.768;2023-07-09T12:04:51;101284.25;;;35.11;36.07
11987;BME280;6053;51.382;6.768;2023-07-09T12:07:23;101288.03;;;35.49;34.46
11987;BME280;6053;51.382;6.768;2023-07-09T12:09:53;101287.75;;;35.28;33.23
11987;BME280;6053;51.382;6.768;2023-07-09T12:12:25;101291.22;;;35.74;33.49
11987;BME280;6053;51.382;6.768;2023-07-09T12:14:55;101284.38;;;35.82;32.86
11987;BME280;6053;51.382;6.768;2023-07-09T12:17:26;101290.25;;;35.97;31.37
11987;BME280;6053;51.382;6.768;2023-07-09T12:19:57;101296.88;;;35.37;36.50
11987;BME280;6053;51.382;6.768;2023-07-09T12:22:27;101293.97;;;35.33;35.15
11987;BME280;6053;51.382;6.768;2023-07-09T12:24:55;101280.41;;;35.60;35.89
11987;BME280;6053;51.382;6.768;2023-07-09T12:27:26;101283.19;;;35.53;34.22
11987;BME280;6053;51.382;6.768;2023-07-09T12:29:57;101268.06;;;35.56;37.20
11987;BME280;6053;51.382;6.768;2023-07-09T12:32:25;101260.81;;;35.36;33.71
11987;BME280;6053;51.382;6.768;2023-07-09T12:34:56;101262.38;;;35.30;35.20
11987;BME280;6053;51.382;6.768;2023-07-09T12:37:28;101266.03;;;35.00;38.25
11987;BME280;6053;51.382;6.768;2023-07-09T12:40:00;101257.50;;;35.04;32.42
11987;BME280;6053;51.382;6.768;2023-07-09T12:42:33;101252.59;;;35.34;37.52
11987;BME280;6053;51.382;6.768;2023-07-09T12:45:08;101245.66;;;35.35;32.87
11987;BME280;6053;51.382;6.768;2023-07-09T12:47:41;101252.25;;;34.83;33.88
11987;BME280;6053;51.382;6.768;2023-07-09T12:50:21;101245.22;;;35.03;33.94
11987;BME280;6053;51.382;6.768;2023-07-09T12:52:51;101249.13;;;35.18;38.72
11987;BME280;6053;51.382;6.768;2023-07-09T12:55:25;101247.91;;;35.19;34.12
11987;BME280;6053;51.382;6.768;2023-07-09T12:57:56;101235.41;;;34.78;37.54
11987;BME280;6053;51.382;6.768;2023-07-09T13:00:30;101233.38;;;35.05;38.72
11987;BME280;6053;51.382;6.768;2023-07-09T13:02:59;101232.19;;;34.56;34.17
11987;BME280;6053;51.382;6.768;2023-07-09T13:05:28;101225.69;;;34.59;38.96
11987;BME280;6053;51.382;6.768;2023-07-09T13:08:01;101216.09;;;34.48;40.39
11987;BME280;6053;51.382;6.768;2023-07-09T13:10:31;101214.25;;;34.59;39.81
11987;BME280;6053;51.382;6.768;2023-07-09T13:13:03;101216.59;;;34.31;36.98
11987;BME280;6053;51.382;6.768;2023-07-09T13:15:39;101214.13;;;34.29;41.32
11987;BME280;6053;51.382;6.768;2023-07-09T13:18:12;101218.91;;;33.98;37.25
11987;BME280;6053;51.382;6.768;2023-07-09T13:20:43;101219.63;;;33.72;43.10
11987;BME280;6053;51.382;6.768;2023-07-09T13:23:16;101212.25;;;33.71;38.84